sensor_id;sensor_type;location;lat;lon;timestamp;P1;durP1;ratioP1;P2;durP2;ratioP2
79122;SDS011;68526;44.600;26.032;2024-01-30T00:00:00;19.75;;;11.90;;
79122;SDS011;68526;44.600;26.032;2024-01-30T00:00:16;19.67;;;12.00;;
79122;SDS011;68526;44.600;26.032;2024-01-30T00:00:33;18.73;;;11.52;;
79122;SDS011;68526;44.600;26.032;2024-01-30T00:00:49;17.48;;;11.35;;
79122;SDS011;68526;44.600;26.032;2024-01-30T00:01:05;18.25;;;11.30;;
79122;SDS011;68526;44.600;26.032;2024-01-30T00:01:21;18.10;;;11.30;;
79122;SDS011;68526;44.600;26.032;2024-01-30T00:01:38;18.35;;;11.55;;
79122;SDS011;68526;44.600;26.032;2024-01-30T00:01:54;19.20;;;11.95;;
79122;SDS011;68526;44.600;26.032;2024-01-30T00:02:09;19.10;;;12.05;;
79122;SDS011;68526;44.600;26.032;2024-01-30T00:02:25;19.83;;;12.25;;
79122;SDS011;68526;44.600;26.032;2024-01-30T00:02:41;20.73;;;12.75;;
79122;SDS011;68526;44.600;26.032;2024-01-30T00:02:58;20.17;;;12.15;;
79122;SDS011;68526;44.600;26.032;2024-01-30T00:03:15;19.58;;;11.93;;
79122;SDS011;68526;44.600;26.032;2024-01-30T00:03:31;19.75;;;11.98;;
79122;SDS011;68526;44.600;26.032;2024-01-30T00:03:47;20.95;;;12.23;;
79122;SDS011;68526;44.600;26.032;2024-01-30T00:04:03;20.77;;;12.60;;
79122;SDS011;68526;44.600;26.032;2024-01-30T00:04:19;20.02;;;12.30;;
79122;SDS011;68526;44.600;26.032;2024-01-30T00:04:35;20.30;;;12.18;;
79122;SDS011;68526;44.600;26.032;2024-01-30T00:04:51;19.00;;;11.80;;
79122;SDS011;68526;44.600;26.032;2024-01-30T00:05:07;18.08;;;11.55;;
79122;SDS011;68526;44.600;26.032;2024-01-30T00:05:23;18.67;;;11.68;;
79122;SDS011;68526;44.600;26.032;2024-01-30T00:05:39;19.37;;;12.27;;
79122;SDS011;68526;44.600;26.032;2024-01-30T00:05:55;19.95;;;12.50;;
79122;SDS011;68526;44.600;26.032;2024-01-30T00:06:11;18.73;;;12.13;;
79122;SDS011;68526;44.600;26.032;2024-01-30T00:06:27;19.27;;;12.15;;
79122;SDS011;68526;44.600;26.032;2024-01-30T00:06:43;20.30;;;12.07;;
79122;SDS011;68526;44.600;26.032;2024-01-30T00:07:00;20.35;;;12.15;;
79122;SDS011;68526;44.600;26.032;2024-01-30T00:07:16;19.48;;;11.70;;
79122;SDS011;68526;44.600;26.032;2024-01-30T00:07:32;19.90;;;12.07;;
79122;SDS011;68526;44.600;26.032;2024-01-30T00:07:48;20.42;;;12.55;;
79122;SDS011;68526;44.600;26.032;2024-01-30T00:08:04;20.33;;;12.10;;
79122;SDS011;68526;44.600;26.032;2024-01-30T00:08:21;19.33;;;11.75;;
79122;SDS011;68526;44.600;26.032;2024-01-30T00:08:37;18.52;;;11.75;;
79122;SDS011;68526;44.600;26.032;2024-01-30T00:08:54;19.70;;;11.70;;
79122;SDS011;68526;44.600;26.032;2024-01-30T00:09:10;19.17;;;11.35;;
79122;SDS011;68526;44.600;26.032;2024-01-30T00:09:26;18.17;;;11.15;;
79122;SDS011;68526;44.600;26.032;2024-01-30T00:09:41;18.23;;;11.02;;
79122;SDS011;68526;44.600;26.032;2024-01-30T00:09:57;18.23;;;11.50;;
79122;SDS011;68526;44.600;26.032;2024-01-30T00:10:13;19.10;;;11.53;;
79122;SDS011;68526;44.600;26.032;2024-01-30T00:10:29;19.08;;;11.27;;
79122;SDS011;68526;44.600;26.032;2024-01-30T00:10:47;19.10;;;11.70;;
79122;SDS011;68526;44.600;26.032;2024-01-30T00:11:04;18.38;;;11.48;;
79122;SDS011;68526;44.600;26.032;2024-01-30T00:11:20;18.67;;;11.82;;
79122;SDS011;68526;44.600;26.032;2024-01-30T00:11:36;18.38;;;11.82;;
79122;SDS011;68526;44.600;26.032;2024-01-30T00:11:52;17.98;;;11.45;;
79122;SDS011;68526;44.600;26.032;2024-01-30T00:12:08;19.80;;;11.98;;
79122;SDS011;68526;44.600;26.032;2024-01-30T00:12:24;19.52;;;12.07;;
79122;SDS011;68526;44.600;26.032;2024-01-30T00:12:40;18.33;;;11.70;;
79122;SDS011;68526;44.600;26.032;2024-01-30T00:12:56;18.10;;;11.45;;
79122;SDS011;68526;44.600;26.032;2024-01-30T00:13:12;17.95;;;11.18;;
79122;SDS011;68526;44.600;26.032;2024-01-30T00:13:29;17.83;;;10.95;;
79122;SDS011;68526;44.600;26.032;2024-01-30T00:13:45;18.42;;;11.13;;
79122;SDS011;68526;44.600;26.032;2024-01-30T00:14:00;18.85;;;11.43;;
79122;SDS011;68526;44.600;26.032;2024-01-30T00:14:16;20.33;;;11.68;;
79122;SDS011;68526;44.600;26.032;2024-01-30T00:14:32;20.10;;;12.15;;
79122;SDS011;68526;44.600;26.032;2024-01-30T00:14:48;20.07;;;12.70;;
79122;SDS011;68526;44.600;26.032;2024-01-30T00:15:04;18.92;;;11.98;;
79122;SDS011;68526;44.600;26.032;2024-01-30T00:15:24;16.83;;;10.88;;
79122;SDS011;68526;44.600;26.032;2024-01-30T00:15:40;17.73;;;11.23;;
79122;SDS011;68526;44.600;26.032;2024-01-30T00:15:56;19.17;;;11.70;;
79122;SDS011;68526;44.600;26.032;2024-01-30T00:16:19;18.65;;;11.55;;
79122;SDS011;68526;44.600;26.032;2024-01-30T00:16:36;17.95;;;11.45;;
79122;SDS011;68526;44.600;26.032;2024-01-30T00:16:52;18.55;;;11.15;;
79122;SDS011;68526;44.600;26.032;2024-01-30T00:17:09;18.60;;;11.65;;
79122;SDS011;68526;44.600;26.032;2024-01-30T00:17:25;18.73;;;11.73;;
79122;SDS011;68526;44.600;26.032;2024-01-30T00:17:41;17.45;;;11.10;;
79122;SDS011;68526;44.600;26.032;2024-01-30T00:17:57;17.43;;;10.93;;
79122;SDS011;68526;44.600;26.032;2024-01-30T00:18:13;17.73;;;11.02;;
79122;SDS011;68526;44.600;26.032;2024-01-30T00:18:29;17.35;;;10.70;;
79122;SDS011;68526;44.600;26.032;2024-01-30T00:18:44;18.00;;;10.50;;
79122;SDS011;68526;44.600;26.032;2024-01-30T00:19:01;18.42;;;11.52;;
79122;SDS011;68526;44.600;26.032;2024-01-30T00:19:18;19.58;;;12.05;;
79122;SDS011;68526;44.600;26.032;2024-01-30T00:19:34;19.37;;;11.80;;
79122;SDS011;68526;44.600;26.032;2024-01-30T00:19:50;18.45;;;11.48;;
79122;SDS011;68526;44.600;26.032;2024-01-30T00:20:06;16.15;;;10.95;;
79122;SDS011;68526;44.600;26.032;2024-01-30T00:20:24;16.13;;;10.85;;
79122;SDS011;68526;44.600;26.032;2024-01-30T00:20:40;16.20;;;10.32;;
79122;SDS011;68526;44.600;26.032;2024-01-30T00:20:56;17.42;;;10.57;;
79122;SDS011;68526;44.600;26.032;2024-01-30T00:21:12;17.85;;;11.35;;
79122;SDS011;68526;44.600;26.032;2024-01-30T00:21:29;17.33;;;11.35;;
79122;SDS011;68526;44.600;26.032;2024-01-30T00:21:45;17.23;;;11.13;;
79122;SDS011;68526;44.600;26.032;2024-01-30T00:22:00;16.95;;;10.70;;
79122;SDS011;68526;44.600;26.032;2024-01-30T00:22:16;17.02;;;10.57;;
79122;SDS011;68526;44.600;26.032;2024-01-30T00:22:32;15.88;;;10.30;;
79122;SDS011;68526;44.600;26.032;2024-01-30T00:22:48;16.23;;;10.55;;
79122;SDS011;68526;44.600;26.032;2024-01-30T00:23:04;18.60;;;11.02;;
79122;SDS011;68526;44.600;26.032;2024-01-30T00:23:21;20.55;;;11.20;;
79122;SDS011;68526;44.600;26.032;2024-01-30T00:23:37;20.50;;;11.30;;
79122;SDS011;68526;44.600;26.032;2024-01-30T00:23:53;17.20;;;10.80;;
79122;SDS011;68526;44.600;26.032;2024-01-30T00:24:09;16.33;;;10.77;;
79122;SDS011;68526;44.600;26.032;2024-01-30T00:24:25;16.48;;;10.63;;
79122;SDS011;68526;44.600;26.032;2024-01-30T00:24:41;16.77;;;10.45;;
79122;SDS011;68526;44.600;26.032;2024-01-30T00:24:56;17.35;;;11.05;;
79122;SDS011;68526;44.600;26.032;2024-01-30T00:25:12;16.93;;;11.13;;
79122;SDS011;68526;44.600;26.032;2024-01-30T00:25:29;16.80;;;11.07;;
79122;SDS011;68526;44.600;26.032;2024-01-30T00:25:47;17.30;;;11.05;;
79122;SDS011;68526;44.600;26.032;2024-01-30T00:26:03;17.58;;;11.02;;
79122;SDS011;68526;44.600;26.032;2024-01-30T00:26:20;16.33;;;10.48;;
79122;SDS011;68526;44.600;26.032;2024-01-30T00:26:36;15.45;;;10.20;;
79122;SDS011;68526;44.600;26.032;2024-01-30T00:26:52;16.10;;;10.23;;
79122;SDS011;68526;44.600;26.032;2024-01-30T00:27:08;15.63;;;10.30;;
79122;SDS011;68526;44.600;26.032;2024-01-30T00:27:25;16.55;;;11.23;;
79122;SDS011;68526;44.600;26.032;2024-01-30T00:27:41;17.85;;;11.50;;
79122;SDS011;68526;44.600;26.032;2024-01-30T00:27:57;17.50;;;10.77;;
79122;SDS011;68526;44.600;26.032;2024-01-30T00:28:13;18.05;;;10.95;;
79122;SDS011;68526;44.600;26.032;2024-01-30T00:28:29;17.67;;;11.23;;
79122;SDS011;68526;44.600;26.032;2024-01-30T00:28:45;16.98;;;11.23;;
79122;SDS011;68526;44.600;26.032;2024-01-30T00:29:01;16.42;;;10.98;;
79122;SDS011;68526;44.600;26.032;2024-01-30T00:29:17;17.27;;;10.63;;
79122;SDS011;68526;44.600;26.032;2024-01-30T00:29:35;17.70;;;10.60;;
79122;SDS011;68526;44.600;26.032;2024-01-30T00:29:50;19.27;;;11.32;;
79122;SDS011;68526;44.600;26.032;2024-01-30T00:30:07;18.33;;;11.37;;
79122;SDS011;68526;44.600;26.032;2024-01-30T00:30:24;16.88;;;10.90;;
79122;SDS011;68526;44.600;26.032;2024-01-30T00:30:40;16.90;;;10.55;;
79122;SDS011;68526;44.600;26.032;2024-01-30T00:30:55;16.15;;;10.20;;
79122;SDS011;68526;44.600;26.032;2024-01-30T00:31:11;16.58;;;10.65;;
79122;SDS011;68526;44.600;26.032;2024-01-30T00:31:27;17.75;;;11.13;;
79122;SDS011;68526;44.600;26.032;2024-01-30T00:31:44;16.58;;;10.57;;
79122;SDS011;68526;44.600;26.032;2024-01-30T00:32:00;16.60;;;10.88;;
79122;SDS011;68526;44.600;26.032;2024-01-30T00:32:16;17.27;;;11.20;;
79122;SDS011;68526;44.600;26.032;2024-01-30T00:32:34;17.58;;;10.98;;
79122;SDS011;68526;44.600;26.032;2024-01-30T00:32:50;17.33;;;10.88;;
79122;SDS011;68526;44.600;26.032;2024-01-30T00:33:06;16.73;;;10.73;;
79122;SDS011;68526;44.600;26.032;2024-01-30T00:33:23;16.77;;;10.63;;
79122;SDS011;68526;44.600;26.032;2024-01-30T00:33:40;16.55;;;10.68;;
79122;SDS011;68526;44.600;26.032;2024-01-30T00:33:56;15.88;;;10.88;;
79122;SDS011;68526;44.600;26.032;2024-01-30T00:34:12;15.50;;;10.57;;
79122;SDS011;68526;44.600;26.032;2024-01-30T00:34:28;17.40;;;10.82;;
79122;SDS011;68526;44.600;26.032;2024-01-30T00:34:44;20.10;;;11.52;;
79122;SDS011;68526;44.600;26.032;2024-01-30T00:35:00;17.70;;;11.38;;
79122;SDS011;68526;44.600;26.032;2024-01-30T00:35:16;17.27;;;10.80;;
79122;SDS011;68526;44.600;26.032;2024-01-30T00:35:32;18.45;;;10.65;;
79122;SDS011;68526;44.600;26.032;2024-01-30T00:35:48;18.77;;;11.35;;
79122;SDS011;68526;44.600;26.032;2024-01-30T00:36:04;17.63;;;11.07;;
79122;SDS011;68526;44.600;26.032;2024-01-30T00:36:20;17.70;;;10.77;;
79122;SDS011;68526;44.600;26.032;2024-01-30T00:36:37;17.63;;;10.80;;
79122;SDS011;68526;44.600;26.032;2024-01-30T00:36:53;16.25;;;10.55;;
79122;SDS011;68526;44.600;26.032;2024-01-30T00:37:09;15.20;;;10.25;;
79122;SDS011;68526;44.600;26.032;2024-01-30T00:37:25;15.30;;;10.50;;
79122;SDS011;68526;44.600;26.032;2024-01-30T00:37:41;18.17;;;11.27;;
79122;SDS011;68526;44.600;26.032;2024-01-30T00:37:57;19.30;;;11.75;;
79122;SDS011;68526;44.600;26.032;2024-01-30T00:38:13;17.98;;;10.95;;
79122;SDS011;68526;44.600;26.032;2024-01-30T00:38:29;17.93;;;10.33;;
79122;SDS011;68526;44.600;26.032;2024-01-30T00:38:46;17.23;;;10.60;;
79122;SDS011;68526;44.600;26.032;2024-01-30T00:39:02;17.42;;;11.40;;
79122;SDS011;68526;44.600;26.032;2024-01-30T00:39:21;18.55;;;10.90;;
79122;SDS011;68526;44.600;26.032;2024-01-30T00:39:37;17.42;;;10.75;;
79122;SDS011;68526;44.600;26.032;2024-01-30T00:39:53;17.73;;;11.30;;
79122;SDS011;68526;44.600;26.032;2024-01-30T00:40:09;19.13;;;11.50;;
79122;SDS011;68526;44.600;26.032;2024-01-30T00:40:30;18.45;;;11.13;;
79122;SDS011;68526;44.600;26.032;2024-01-30T00:40:47;16.90;;;10.43;;
79122;SDS011;68526;44.600;26.032;2024-01-30T00:41:03;16.75;;;10.05;;
79122;SDS011;68526;44.600;26.032;2024-01-30T00:41:19;17.15;;;10.30;;
79122;SDS011;68526;44.600;26.032;2024-01-30T00:41:35;17.65;;;10.95;;
79122;SDS011;68526;44.600;26.032;2024-01-30T00:41:51;17.48;;;11.10;;
79122;SDS011;68526;44.600;26.032;2024-01-30T00:42:07;17.65;;;11.05;;
79122;SDS011;68526;44.600;26.032;2024-01-30T00:42:24;18.50;;;11.27;;
79122;SDS011;68526;44.600;26.032;2024-01-30T00:42:40;18.70;;;11.20;;
79122;SDS011;68526;44.600;26.032;2024-01-30T00:42:56;18.77;;;11.15;;
79122;SDS011;68526;44.600;26.032;2024-01-30T00:43:12;17.90;;;11.27;;
79122;SDS011;68526;44.600;26.032;2024-01-30T00:43:28;16.58;;;10.90;;
79122;SDS011;68526;44.600;26.032;2024-01-30T00:43:44;17.92;;;10.60;;
79122;SDS011;68526;44.600;26.032;2024-01-30T00:44:00;17.23;;;10.30;;
79122;SDS011;68526;44.600;26.032;2024-01-30T00:44:16;16.35;;;10.23;;
79122;SDS011;68526;44.600;26.032;2024-01-30T00:44:34;16.65;;;11.00;;
79122;SDS011;68526;44.600;26.032;2024-01-30T00:44:51;17.27;;;10.93;;
79122;SDS011;68526;44.600;26.032;2024-01-30T00:45:11;17.05;;;10.77;;
79122;SDS011;68526;44.600;26.032;2024-01-30T00:45:27;16.50;;;10.93;;
79122;SDS011;68526;44.600;26.032;2024-01-30T00:45:43;17.60;;;10.98;;
79122;SDS011;68526;44.600;26.032;2024-01-30T00:45:59;17.90;;;11.18;;
79122;SDS011;68526;44.600;26.032;2024-01-30T00:46:15;18.23;;;11.43;;
79122;SDS011;68526;44.600;26.032;2024-01-30T00:46:31;17.67;;;11.25;;
79122;SDS011;68526;44.600;26.032;2024-01-30T00:46:48;16.65;;;10.77;;
79122;SDS011;68526;44.600;26.032;2024-01-30T00:47:04;18.60;;;10.87;;
79122;SDS011;68526;44.600;26.032;2024-01-30T00:47:20;18.55;;;10.68;;
79122;SDS011;68526;44.600;26.032;2024-01-30T00:47:36;18.40;;;11.20;;
79122;SDS011;68526;44.600;26.032;2024-01-30T00:47:52;18.30;;;11.60;;
79122;SDS011;68526;44.600;26.032;2024-01-30T00:48:08;17.02;;;11.18;;
79122;SDS011;68526;44.600;26.032;2024-01-30T00:48:25;17.95;;;11.13;;
79122;SDS011;68526;44.600;26.032;2024-01-30T00:48:41;17.83;;;11.35;;
79122;SDS011;68526;44.600;26.032;2024-01-30T00:48:57;16.90;;;11.48;;
79122;SDS011;68526;44.600;26.032;2024-01-30T00:49:13;17.55;;;11.90;;
79122;SDS011;68526;44.600;26.032;2024-01-30T00:49:28;17.42;;;11.55;;
79122;SDS011;68526;44.600;26.032;2024-01-30T00:49:45;18.00;;;11.33;;
79122;SDS011;68526;44.600;26.032;2024-01-30T00:50:01;18.08;;;11.65;;
79122;SDS011;68526;44.600;26.032;2024-01-30T00:50:17;17.83;;;11.68;;
79122;SDS011;68526;44.600;26.032;2024-01-30T00:50:33;19.50;;;11.95;;
79122;SDS011;68526;44.600;26.032;2024-01-30T00:50:49;19.17;;;11.93;;
79122;SDS011;68526;44.600;26.032;2024-01-30T00:51:05;17.55;;;11.38;;
79122;SDS011;68526;44.600;26.032;2024-01-30T00:51:21;18.08;;;11.38;;
79122;SDS011;68526;44.600;26.032;2024-01-30T00:51:38;19.13;;;11.65;;
79122;SDS011;68526;44.600;26.032;2024-01-30T00:51:54;19.38;;;11.70;;
79122;SDS011;68526;44.600;26.032;2024-01-30T00:52:10;17.60;;;11.37;;
79122;SDS011;68526;44.600;26.032;2024-01-30T00:52:26;17.77;;;11.63;;
79122;SDS011;68526;44.600;26.032;2024-01-30T00:52:42;19.13;;;12.32;;
79122;SDS011;68526;44.600;26.032;2024-01-30T00:53:00;19.60;;;12.10;;
79122;SDS011;68526;44.600;26.032;2024-01-30T00:53:16;20.05;;;11.93;;
79122;SDS011;68526;44.600;26.032;2024-01-30T00:53:33;20.08;;;11.93;;
79122;SDS011;68526;44.600;26.032;2024-01-30T00:53:49;18.13;;;11.32;;
79122;SDS011;68526;44.600;26.032;2024-01-30T00:54:05;17.13;;;11.13;;
79122;SDS011;68526;44.600;26.032;2024-01-30T00:54:21;19.05;;;11.45;;
79122;SDS011;68526;44.600;26.032;2024-01-30T00:54:37;18.33;;;11.60;;
79122;SDS011;68526;44.600;26.032;2024-01-30T00:54:53;18.52;;;12.05;;
79122;SDS011;68526;44.600;26.032;2024-01-30T00:55:10;20.85;;;12.77;;
79122;SDS011;68526;44.600;26.032;2024-01-30T00:55:26;19.77;;;12.02;;
79122;SDS011;68526;44.600;26.032;2024-01-30T00:55:42;17.98;;;11.15;;
79122;SDS011;68526;44.600;26.032;2024-01-30T00:55:59;17.35;;;11.02;;
79122;SDS011;68526;44.600;26.032;2024-01-30T00:56:15;17.40;;;10.95;;
79122;SDS011;68526;44.600;26.032;2024-01-30T00:56:33;17.77;;;11.57;;
79122;SDS011;68526;44.600;26.032;2024-01-30T00:56:50;18.70;;;11.70;;
79122;SDS011;68526;44.600;26.032;2024-01-30T00:57:06;19.97;;;12.33;;
79122;SDS011;68526;44.600;26.032;2024-01-30T00:57:22;20.65;;;12.95;;
79122;SDS011;68526;44.600;26.032;2024-01-30T00:57:38;20.35;;;12.32;;
79122;SDS011;68526;44.600;26.032;2024-01-30T00:57:54;20.60;;;11.98;;
79122;SDS011;68526;44.600;26.032;2024-01-30T00:58:10;18.95;;;11.65;;
79122;SDS011;68526;44.600;26.032;2024-01-30T00:58:26;20.73;;;12.13;;
79122;SDS011;68526;44.600;26.032;2024-01-30T00:58:43;20.58;;;12.23;;
79122;SDS011;68526;44.600;26.032;2024-01-30T00:58:58;18.77;;;11.75;;
79122;SDS011;68526;44.600;26.032;2024-01-30T00:59:14;19.03;;;11.90;;
79122;SDS011;68526;44.600;26.032;2024-01-30T00:59:30;18.83;;;12.15;;
79122;SDS011;68526;44.600;26.032;2024-01-30T00:59:46;17.90;;;11.90;;
79122;SDS011;68526;44.600;26.032;2024-01-30T01:00:02;17.35;;;11.45;;
79122;SDS011;68526;44.600;26.032;2024-01-30T01:00:19;20.58;;;12.07;;
79122;SDS011;68526;44.600;26.032;2024-01-30T01:00:36;21.05;;;12.45;;
79122;SDS011;68526;44.600;26.032;2024-01-30T01:00:53;19.13;;;12.27;;
79122;SDS011;68526;44.600;26.032;2024-01-30T01:01:08;18.02;;;12.13;;
79122;SDS011;68526;44.600;26.032;2024-01-30T01:01:24;18.15;;;12.43;;
79122;SDS011;68526;44.600;26.032;2024-01-30T01:01:40;18.60;;;12.23;;
79122;SDS011;68526;44.600;26.032;2024-01-30T01:01:56;19.25;;;12.18;;
79122;SDS011;68526;44.600;26.032;2024-01-30T01:02:12;20.48;;;12.43;;
79122;SDS011;68526;44.600;26.032;2024-01-30T01:02:30;22.60;;;12.45;;
79122;SDS011;68526;44.600;26.032;2024-01-30T01:02:47;21.58;;;12.70;;
79122;SDS011;68526;44.600;26.032;2024-01-30T01:03:03;20.02;;;12.77;;
79122;SDS011;68526;44.600;26.032;2024-01-30T01:03:19;20.92;;;12.55;;
79122;SDS011;68526;44.600;26.032;2024-01-30T01:03:35;21.02;;;12.77;;
79122;SDS011;68526;44.600;26.032;2024-01-30T01:03:51;19.58;;;12.70;;
79122;SDS011;68526;44.600;26.032;2024-01-30T01:04:07;20.42;;;12.15;;
79122;SDS011;68526;44.600;26.032;2024-01-30T01:04:22;20.70;;;11.88;;
79122;SDS011;68526;44.600;26.032;2024-01-30T01:04:39;20.23;;;12.30;;
79122;SDS011;68526;44.600;26.032;2024-01-30T01:04:55;20.83;;;12.45;;
79122;SDS011;68526;44.600;26.032;2024-01-30T01:05:11;21.92;;;12.63;;
79122;SDS011;68526;44.600;26.032;2024-01-30T01:05:27;21.17;;;12.85;;
79122;SDS011;68526;44.600;26.032;2024-01-30T01:05:43;19.73;;;12.40;;
79122;SDS011;68526;44.600;26.032;2024-01-30T01:05:59;21.80;;;12.65;;
79122;SDS011;68526;44.600;26.032;2024-01-30T01:06:15;21.92;;;12.55;;
79122;SDS011;68526;44.600;26.032;2024-01-30T01:06:32;20.92;;;12.63;;
79122;SDS011;68526;44.600;26.032;2024-01-30T01:06:48;20.05;;;12.30;;
79122;SDS011;68526;44.600;26.032;2024-01-30T01:07:04;18.98;;;11.90;;
79122;SDS011;68526;44.600;26.032;2024-01-30T01:07:20;19.73;;;12.45;;
79122;SDS011;68526;44.600;26.032;2024-01-30T01:07:36;19.93;;;12.60;;
79122;SDS011;68526;44.600;26.032;2024-01-30T01:07:52;20.92;;;13.10;;
79122;SDS011;68526;44.600;26.032;2024-01-30T01:08:09;21.60;;;13.48;;
79122;SDS011;68526;44.600;26.032;2024-01-30T01:08:25;20.02;;;12.65;;
79122;SDS011;68526;44.600;26.032;2024-01-30T01:08:41;20.45;;;12.63;;
79122;SDS011;68526;44.600;26.032;2024-01-30T01:08:57;21.45;;;13.38;;
79122;SDS011;68526;44.600;26.032;2024-01-30T01:09:13;20.70;;;13.50;;
79122;SDS011;68526;44.600;26.032;2024-01-30T01:09:29;21.85;;;13.35;;
79122;SDS011;68526;44.600;26.032;2024-01-30T01:09:44;21.03;;;12.87;;
79122;SDS011;68526;44.600;26.032;2024-01-30T01:10:01;19.92;;;12.80;;
79122;SDS011;68526;44.600;26.032;2024-01-30T01:10:19;18.33;;;12.60;;
79122;SDS011;68526;44.600;26.032;2024-01-30T01:10:35;18.90;;;13.07;;
79122;SDS011;68526;44.600;26.032;2024-01-30T01:10:50;20.85;;;12.77;;
79122;SDS011;68526;44.600;26.032;2024-01-30T01:11:08;21.80;;;12.65;;
79122;SDS011;68526;44.600;26.032;2024-01-30T01:11:24;21.40;;;12.90;;
79122;SDS011;68526;44.600;26.032;2024-01-30T01:11:40;21.23;;;12.93;;
79122;SDS011;68526;44.600;26.032;2024-01-30T01:11:57;21.88;;;13.18;;
79122;SDS011;68526;44.600;26.032;2024-01-30T01:12:13;21.05;;;13.10;;
79122;SDS011;68526;44.600;26.032;2024-01-30T01:12:29;21.20;;;13.30;;
79122;SDS011;68526;44.600;26.032;2024-01-30T01:12:45;21.10;;;13.27;;
79122;SDS011;68526;44.600;26.032;2024-01-30T01:13:01;21.55;;;13.25;;
79122;SDS011;68526;44.600;26.032;2024-01-30T01:13:17;22.02;;;13.52;;
79122;SDS011;68526;44.600;26.032;2024-01-30T01:13:33;19.70;;;12.98;;
79122;SDS011;68526;44.600;26.032;2024-01-30T01:13:50;19.55;;;12.82;;
79122;SDS011;68526;44.600;26.032;2024-01-30T01:14:06;20.40;;;12.85;;
79122;SDS011;68526;44.600;26.032;2024-01-30T01:14:22;21.98;;;13.13;;
79122;SDS011;68526;44.600;26.032;2024-01-30T01:14:37;22.27;;;12.97;;
79122;SDS011;68526;44.600;26.032;2024-01-30T01:14:53;21.10;;;12.48;;
79122;SDS011;68526;44.600;26.032;2024-01-30T01:15:09;20.50;;;12.68;;
79122;SDS011;68526;44.600;26.032;2024-01-30T01:15:26;20.15;;;13.43;;
79122;SDS011;68526;44.600;26.032;2024-01-30T01:15:42;20.17;;;12.93;;
79122;SDS011;68526;44.600;26.032;2024-01-30T01:15:59;19.55;;;12.73;;
79122;SDS011;68526;44.600;26.032;2024-01-30T01:16:15;20.77;;;12.93;;
79122;SDS011;68526;44.600;26.032;2024-01-30T01:16:31;21.57;;;12.70;;
79122;SDS011;68526;44.600;26.032;2024-01-30T01:16:47;20.30;;;12.48;;
79122;SDS011;68526;44.600;26.032;2024-01-30T01:17:03;20.55;;;12.80;;
79122;SDS011;68526;44.600;26.032;2024-01-30T01:17:19;23.33;;;13.27;;
79122;SDS011;68526;44.600;26.032;2024-01-30T01:17:35;23.73;;;13.27;;
79122;SDS011;68526;44.600;26.032;2024-01-30T01:17:51;22.25;;;13.23;;
79122;SDS011;68526;44.600;26.032;2024-01-30T01:18:08;22.80;;;13.90;;
79122;SDS011;68526;44.600;26.032;2024-01-30T01:18:24;22.48;;;13.73;;
79122;SDS011;68526;44.600;26.032;2024-01-30T01:18:40;21.63;;;13.90;;
79122;SDS011;68526;44.600;26.032;2024-01-30T01:18:56;21.60;;;14.05;;
79122;SDS011;68526;44.600;26.032;2024-01-30T01:19:12;21.80;;;13.65;;
79122;SDS011;68526;44.600;26.032;2024-01-30T01:19:28;20.50;;;13.05;;
79122;SDS011;68526;44.600;26.032;2024-01-30T01:19:44;20.70;;;12.95;;
79122;SDS011;68526;44.600;26.032;2024-01-30T01:20:00;21.90;;;12.90;;
79122;SDS011;68526;44.600;26.032;2024-01-30T01:20:16;20.65;;;12.85;;
79122;SDS011;68526;44.600;26.032;2024-01-30T01:20:32;21.83;;;13.60;;
79122;SDS011;68526;44.600;26.032;2024-01-30T01:20:48;22.30;;;13.45;;
79122;SDS011;68526;44.600;26.032;2024-01-30T01:21:04;21.23;;;13.13;;
79122;SDS011;68526;44.600;26.032;2024-01-30T01:21:21;22.00;;;13.23;;
79122;SDS011;68526;44.600;26.032;2024-01-30T01:21:37;22.08;;;13.43;;
79122;SDS011;68526;44.600;26.032;2024-01-30T01:21:52;22.55;;;14.00;;
79122;SDS011;68526;44.600;26.032;2024-01-30T01:22:08;23.70;;;14.70;;
79122;SDS011;68526;44.600;26.032;2024-01-30T01:22:25;23.15;;;14.57;;
79122;SDS011;68526;44.600;26.032;2024-01-30T01:22:41;22.60;;;13.80;;
79122;SDS011;68526;44.600;26.032;2024-01-30T01:22:57;21.50;;;13.32;;
79122;SDS011;68526;44.600;26.032;2024-01-30T01:23:13;21.00;;;13.70;;
79122;SDS011;68526;44.600;26.032;2024-01-30T01:23:29;22.25;;;14.40;;
79122;SDS011;68526;44.600;26.032;2024-01-30T01:23:45;22.40;;;14.52;;
79122;SDS011;68526;44.600;26.032;2024-01-30T01:24:01;22.20;;;14.45;;
79122;SDS011;68526;44.600;26.032;2024-01-30T01:24:18;22.90;;;14.57;;
79122;SDS011;68526;44.600;26.032;2024-01-30T01:24:34;23.45;;;14.68;;
79122;SDS011;68526;44.600;26.032;2024-01-30T01:24:50;21.85;;;14.18;;
79122;SDS011;68526;44.600;26.032;2024-01-30T01:25:06;21.73;;;13.88;;
79122;SDS011;68526;44.600;26.032;2024-01-30T01:25:23;25.42;;;14.57;;
79122;SDS011;68526;44.600;26.032;2024-01-30T01:25:39;24.70;;;14.40;;
79122;SDS011;68526;44.600;26.032;2024-01-30T01:25:56;22.63;;;13.85;;
79122;SDS011;68526;44.600;26.032;2024-01-30T01:26:16;23.55;;;14.27;;
79122;SDS011;68526;44.600;26.032;2024-01-30T01:26:32;23.20;;;14.18;;
79122;SDS011;68526;44.600;26.032;2024-01-30T01:26:48;23.52;;;14.65;;
79122;SDS011;68526;44.600;26.032;2024-01-30T01:27:04;24.88;;;14.98;;
79122;SDS011;68526;44.600;26.032;2024-01-30T01:27:21;23.50;;;14.23;;
79122;SDS011;68526;44.600;26.032;2024-01-30T01:27:36;22.83;;;13.95;;
79122;SDS011;68526;44.600;26.032;2024-01-30T01:27:56;23.15;;;14.10;;
79122;SDS011;68526;44.600;26.032;2024-01-30T01:28:12;21.58;;;13.90;;
79122;SDS011;68526;44.600;26.032;2024-01-30T01:28:28;22.75;;;13.80;;
79122;SDS011;68526;44.600;26.032;2024-01-30T01:28:44;23.42;;;14.25;;
79122;SDS011;68526;44.600;26.032;2024-01-30T01:29:00;22.10;;;14.20;;
79122;SDS011;68526;44.600;26.032;2024-01-30T01:29:16;22.23;;;13.88;;
79122;SDS011;68526;44.600;26.032;2024-01-30T01:29:32;21.73;;;13.45;;
79122;SDS011;68526;44.600;26.032;2024-01-30T01:29:49;21.83;;;14.15;;
79122;SDS011;68526;44.600;26.032;2024-01-30T01:30:05;22.92;;;14.18;;
79122;SDS011;68526;44.600;26.032;2024-01-30T01:30:24;23.40;;;13.82;;
79122;SDS011;68526;44.600;26.032;2024-01-30T01:30:41;21.80;;;14.02;;
79122;SDS011;68526;44.600;26.032;2024-01-30T01:30:57;21.38;;;13.43;;
79122;SDS011;68526;44.600;26.032;2024-01-30T01:31:20;21.45;;;13.73;;
79122;SDS011;68526;44.600;26.032;2024-01-30T01:31:39;22.38;;;13.98;;
79122;SDS011;68526;44.600;26.032;2024-01-30T01:31:58;22.23;;;13.85;;
79122;SDS011;68526;44.600;26.032;2024-01-30T01:32:14;22.38;;;13.90;;
79122;SDS011;68526;44.600;26.032;2024-01-30T01:32:30;23.17;;;14.17;;
79122;SDS011;68526;44.600;26.032;2024-01-30T01:32:46;21.88;;;13.98;;
79122;SDS011;68526;44.600;26.032;2024-01-30T01:33:06;21.55;;;13.27;;
79122;SDS011;68526;44.600;26.032;2024-01-30T01:33:21;21.67;;;13.60;;
79122;SDS011;68526;44.600;26.032;2024-01-30T01:33:37;22.85;;;14.50;;
79122;SDS011;68526;44.600;26.032;2024-01-30T01:33:54;22.85;;;14.27;;